createdAt,value
2019-03-28T00:02:58.671Z,12.40
2019-03-28T00:06:05.092Z,12.37
2019-03-28T00:09:11.494Z,12.35
2019-03-28T00:12:17.793Z,12.48
2019-03-28T00:15:24.070Z,12.53
2019-03-28T00:18:30.402Z,12.57
2019-03-28T00:21:36.680Z,12.12
2019-03-28T00:24:54.587Z,12.15
2019-03-28T00:28:00.862Z,12.35
2019-03-28T00:31:07.175Z,11.46
2019-03-28T00:34:13.472Z,11.35
2019-03-28T00:37:19.822Z,11.44
2019-03-28T00:40:26.282Z,11.33
2019-03-28T00:43:32.613Z,11.04
2019-03-28T00:46:38.870Z,11.68
2019-03-28T00:49:45.232Z,11.81
2019-03-28T00:52:51.489Z,11.70
2019-03-28T00:55:57.864Z,11.32
2019-03-28T00:59:04.198Z,11.33
2019-03-28T01:02:10.466Z,11.13
2019-03-28T01:05:17.201Z,10.84
2019-03-28T01:08:23.775Z,11.12
2019-03-28T01:11:30.133Z,11.17
2019-03-28T01:14:36.603Z,10.86
2019-03-28T01:17:43.080Z,10.82
2019-03-28T01:20:49.405Z,11.21
2019-03-28T01:23:55.730Z,11.13
2019-03-28T01:27:02.072Z,10.47
2019-03-28T01:30:08.637Z,10.62
2019-03-28T01:33:14.922Z,10.61
2019-03-28T01:36:21.229Z,10.28
2019-03-28T01:39:27.534Z,10.31
2019-03-28T01:42:34.732Z,10.35
2019-03-28T01:45:41.044Z,10.37
2019-03-28T01:48:47.332Z,10.73
2019-03-28T01:51:53.659Z,10.61
2019-03-28T01:54:59.924Z,10.92
2019-03-28T01:58:06.192Z,11.05
2019-03-28T02:01:12.678Z,10.79
2019-03-28T02:04:19.029Z,10.93
2019-03-28T02:07:25.434Z,10.58
2019-03-28T02:10:31.703Z,10.78
2019-03-28T02:13:38.043Z,10.78
2019-03-28T02:16:44.359Z,10.52
2019-03-28T02:19:50.728Z,10.89
2019-03-28T02:22:56.998Z,10.59
2019-03-28T02:26:03.362Z,10.74
2019-03-28T02:29:09.662Z,11.04
2019-03-28T02:32:16.001Z,11.22
2019-03-28T02:35:22.276Z,11.15
2019-03-28T02:38:28.677Z,11.54
2019-03-28T02:41:35.228Z,10.80
2019-03-28T02:44:41.551Z,11.09
2019-03-28T02:47:47.863Z,11.11
2019-03-28T02:50:54.110Z,11.37
2019-03-28T02:54:00.443Z,11.47
2019-03-28T02:57:07.744Z,11.32
2019-03-28T03:00:15.975Z,11.29
2019-03-28T03:03:22.364Z,11.33
2019-03-28T03:06:28.626Z,10.95
2019-03-28T03:09:34.954Z,10.71
2019-03-28T03:12:41.428Z,10.66
2019-03-28T03:15:47.997Z,10.50
2019-03-28T03:18:54.264Z,10.20
2019-03-28T03:22:00.675Z,10.19
2019-03-28T03:25:07.465Z,10.39
2019-03-28T03:28:13.782Z,10.54
2019-03-28T03:31:21.372Z,10.63
2019-03-28T03:34:28.209Z,10.84
2019-03-28T03:37:34.463Z,10.13
2019-03-28T03:40:40.855Z,10.42
2019-03-28T03:43:47.226Z,10.33
2019-03-28T03:46:54.531Z,10.61
2019-03-28T03:50:00.854Z,10.55
2019-03-28T03:53:07.571Z,10.49
2019-03-28T03:56:14.259Z,10.54
2019-03-28T03:59:20.689Z,10.47
2019-03-28T04:02:27.052Z,10.17
2019-03-28T04:05:33.626Z,10.44
2019-03-28T04:08:39.937Z,10.66
2019-03-28T04:11:46.179Z,10.58
2019-03-28T04:14:52.567Z,10.62
2019-03-28T04:17:58.835Z,10.66
2019-03-28T04:21:05.123Z,10.61
2019-03-28T04:24:11.463Z,10.57
2019-03-28T04:27:17.722Z,10.41
2019-03-28T04:30:24.088Z,10.31
2019-03-28T04:33:30.361Z,10.30
2019-03-28T04:36:36.738Z,10.25
2019-03-28T04:39:43.260Z,10.41
2019-03-28T04:42:49.577Z,10.24
2019-03-28T04:45:56.479Z,10.13
2019-03-28T04:49:02.948Z,10.25
2019-03-28T04:52:09.353Z,9.94
2019-03-28T04:55:15.821Z,9.82
2019-03-28T04:58:23.301Z,10.05
2019-03-28T05:01:29.999Z,10.16
2019-03-28T05:04:36.369Z,10.09
2019-03-28T05:07:42.630Z,10.09
2019-03-28T05:10:48.932Z,10.07
2019-03-28T05:13:55.204Z,10.25
2019-03-28T05:17:01.716Z,10.09
2019-03-28T05:20:09.251Z,9.78
2019-03-28T05:23:15.585Z,9.97
2019-03-28T05:26:21.939Z,9.98
2019-03-28T05:29:28.230Z,10.13
2019-03-28T05:32:34.491Z,10.01
2019-03-28T05:35:40.759Z,10.33
2019-03-28T05:38:47.090Z,9.99
2019-03-28T05:41:53.368Z,10.01
2019-03-28T05:44:59.667Z,10.54
2019-03-28T05:48:06.036Z,10.42
2019-03-28T05:51:12.305Z,10.26
2019-03-28T05:54:18.651Z,10.24
2019-03-28T05:57:24.979Z,10.56
2019-03-28T06:00:31.256Z,10.61
2019-03-28T06:03:37.684Z,10.30
2019-03-28T06:06:44.314Z,10.37
2019-03-28T06:09:50.958Z,10.49
2019-03-28T06:12:57.263Z,10.62
2019-03-28T06:16:03.587Z,10.60
2019-03-28T06:19:10.452Z,10.40
2019-03-28T06:22:17.842Z,10.44
2019-03-28T06:25:24.224Z,10.17
2019-03-28T06:28:30.554Z,10.41
2019-03-28T06:31:36.865Z,10.90
2019-03-28T06:34:43.196Z,10.85
2019-03-28T06:37:51.453Z,11.13
2019-03-28T06:40:57.514Z,10.81
2019-03-28T06:44:04.144Z,10.28
2019-03-28T06:47:10.410Z,10.52
2019-03-28T06:50:17.013Z,10.54
2019-03-28T06:53:23.322Z,10.29
2019-03-28T06:56:29.721Z,10.39
2019-03-28T06:59:37.614Z,10.77
2019-03-28T07:02:44.254Z,10.67
2019-03-28T07:05:50.549Z,11.10
2019-03-28T07:08:56.814Z,11.28
2019-03-28T07:12:03.110Z,11.56
2019-03-28T07:15:09.822Z,11.94
2019-03-28T07:18:16.192Z,12.73
2019-03-28T07:21:22.461Z,12.81
2019-03-28T07:24:28.770Z,12.84
2019-03-28T07:27:35.428Z,13.17
2019-03-28T07:30:41.767Z,13.06
2019-03-28T07:33:48.077Z,13.13
2019-03-28T07:36:54.351Z,12.96
2019-03-28T07:40:00.740Z,13.06
2019-03-28T07:43:08.197Z,13.83
2019-03-28T07:46:14.521Z,13.97
2019-03-28T07:49:20.948Z,13.89
2019-03-28T07:52:27.608Z,14.50
2019-03-28T07:55:34.232Z,14.53
2019-03-28T07:58:40.662Z,14.35
2019-03-28T08:01:47.022Z,14.76
2019-03-28T08:04:53.335Z,14.54
2019-03-28T08:08:00.694Z,14.42
2019-03-28T08:11:07.031Z,14.83
2019-03-28T08:14:13.518Z,14.93
2019-03-28T08:17:19.802Z,15.24
2019-03-28T08:20:26.085Z,15.00
2019-03-28T08:23:35.160Z,15.44
2019-03-28T08:26:40.525Z,14.75
2019-03-28T08:29:47.907Z,15.41
2019-03-28T08:32:54.244Z,15.15
2019-03-28T08:36:00.655Z,15.48
2019-03-28T08:39:08.152Z,15.62
2019-03-28T08:42:14.524Z,15.68
2019-03-28T08:45:20.880Z,15.87
2019-03-28T08:48:27.152Z,15.89
2019-03-28T08:51:33.532Z,16.08
2019-03-28T08:54:39.770Z,16.27
2019-03-28T08:57:46.123Z,15.73
2019-03-28T09:00:53.122Z,16.03
2019-03-28T09:03:59.611Z,16.73
2019-03-28T09:07:06.396Z,16.40
2019-03-28T09:10:12.954Z,16.23
2019-03-28T09:13:19.544Z,16.40
2019-03-28T09:16:25.886Z,16.75
2019-03-28T09:19:32.223Z,17.00
2019-03-28T09:22:39.087Z,16.40
2019-03-28T09:25:45.548Z,17.31
2019-03-28T09:28:52.839Z,17.04
2019-03-28T09:31:59.838Z,17.65
2019-03-28T09:35:07.331Z,16.28
2019-03-28T09:38:13.574Z,16.22
2019-03-28T09:41:19.948Z,16.43
2019-03-28T09:44:26.343Z,16.59
2019-03-28T09:47:32.641Z,17.09
2019-03-28T09:50:39.103Z,17.86
2019-03-28T09:53:45.459Z,17.53
2019-03-28T09:56:51.750Z,17.65
2019-03-28T09:59:58.037Z,17.45
2019-03-28T10:03:04.384Z,17.00
2019-03-28T10:06:10.768Z,17.32
2019-03-28T10:09:17.075Z,17.88
2019-03-28T10:12:23.597Z,17.54
2019-03-28T10:15:29.917Z,16.66
2019-03-28T10:18:36.221Z,16.69
2019-03-28T10:21:42.519Z,16.57
2019-03-28T10:24:48.892Z,16.49
2019-03-28T10:27:55.224Z,17.17
2019-03-28T10:31:01.513Z,15.65
2019-03-28T10:34:07.887Z,16.18
2019-03-28T10:37:14.260Z,17.23
2019-03-28T10:40:20.610Z,18.00
2019-03-28T10:43:27.347Z,17.59
2019-03-28T10:46:33.638Z,18.46
2019-03-28T10:49:40.011Z,19.15
2019-03-28T10:52:46.339Z,19.09
2019-03-28T10:55:52.598Z,17.80
2019-03-28T10:58:58.938Z,17.39
2019-03-28T11:02:05.727Z,17.40
2019-03-28T11:05:12.234Z,17.40
2019-03-28T11:08:18.519Z,17.45
2019-03-28T11:11:24.805Z,17.17
2019-03-28T11:14:31.230Z,17.66
2019-03-28T11:17:37.622Z,18.00
2019-03-28T11:20:44.050Z,18.31
2019-03-28T11:23:50.423Z,17.14
2019-03-28T11:26:57.676Z,17.09
2019-03-28T11:30:04.233Z,16.45
2019-03-28T11:33:10.638Z,16.52
2019-03-28T11:36:17.005Z,16.38
2019-03-28T11:39:23.343Z,16.99
2019-03-28T11:42:29.649Z,17.58
2019-03-28T11:45:36.136Z,17.62
2019-03-28T11:48:42.436Z,17.89
2019-03-28T11:51:48.734Z,17.57
2019-03-28T11:54:55.124Z,17.81
2019-03-28T11:58:01.512Z,17.59
2019-03-28T12:01:07.784Z,18.50
2019-03-28T12:04:14.193Z,18.24
2019-03-28T12:07:20.489Z,18.05
2019-03-28T12:10:27.982Z,18.09
2019-03-28T12:13:44.038Z,18.24
2019-03-28T12:16:42.513Z,17.29
2019-03-28T12:19:49.045Z,17.98
2019-03-28T12:22:56.184Z,17.90
2019-03-28T12:26:03.597Z,18.06
2019-03-28T12:29:10.965Z,18.04
2019-03-28T12:32:17.338Z,18.98
2019-03-28T12:35:23.665Z,18.90
2019-03-28T12:38:29.966Z,18.41
2019-03-28T12:41:36.233Z,17.42
2019-03-28T12:44:56.043Z,17.69
2019-03-28T12:47:50.726Z,17.34
2019-03-28T12:50:58.935Z,17.11
2019-03-28T12:54:05.228Z,17.92
2019-03-28T12:57:14.282Z,17.45
2019-03-28T13:00:22.843Z,18.07
2019-03-28T13:03:34.785Z,18.20
2019-03-28T13:06:37.192Z,18.71
2019-03-28T13:09:43.452Z,17.67
2019-03-28T13:12:51.370Z,17.13
2019-03-28T13:15:57.657Z,17.56
2019-03-28T13:19:04.015Z,18.16
2019-03-28T13:22:10.420Z,18.12
2019-03-28T13:25:16.893Z,18.73
2019-03-28T13:28:23.197Z,18.33
2019-03-28T13:31:29.520Z,17.71
2019-03-28T13:34:35.845Z,17.12
2019-03-28T13:37:42.274Z,16.74
2019-03-28T13:40:48.594Z,17.27
2019-03-28T13:43:54.974Z,17.80
2019-03-28T13:47:01.246Z,18.25
2019-03-28T13:50:08.704Z,17.82
2019-03-28T13:53:15.050Z,16.55
2019-03-28T13:56:21.558Z,16.43
2019-03-28T13:59:28.094Z,17.11
2019-03-28T14:02:34.532Z,17.97
2019-03-28T14:05:40.809Z,17.71
2019-03-28T14:08:47.289Z,17.57
2019-03-28T14:11:53.605Z,18.31
2019-03-28T14:14:59.991Z,17.72
2019-03-28T14:18:06.376Z,17.25
2019-03-28T14:21:12.672Z,17.72
2019-03-28T14:24:20.054Z,18.04
2019-03-28T14:27:26.400Z,17.72
2019-03-28T14:30:32.808Z,17.08
2019-03-28T14:33:39.216Z,17.23
2019-03-28T14:36:45.473Z,16.91
2019-03-28T14:39:51.821Z,16.58
2019-03-28T14:42:58.152Z,16.73
2019-03-28T14:46:04.684Z,16.69
2019-03-28T14:49:11.443Z,16.78
2019-03-28T14:52:17.920Z,15.85
2019-03-28T14:55:24.506Z,15.09
2019-03-28T14:58:32.518Z,16.16
2019-03-28T15:01:38.967Z,15.94
2019-03-28T15:04:45.288Z,16.44
2019-03-28T15:07:51.780Z,15.58
2019-03-28T15:10:58.148Z,15.56
2019-03-28T15:14:04.532Z,15.90
2019-03-28T15:17:10.992Z,16.06
2019-03-28T15:20:17.406Z,16.11
2019-03-28T15:23:23.886Z,16.71
2019-03-28T15:26:30.446Z,16.88
2019-03-28T15:29:36.697Z,16.86
2019-03-28T15:32:43.021Z,16.90
2019-03-28T15:35:49.427Z,16.39
2019-03-28T15:38:55.945Z,16.47
2019-03-28T15:42:02.456Z,16.42
2019-03-28T15:45:09.195Z,16.20
2019-03-28T15:48:15.656Z,16.12
2019-03-28T15:51:22.186Z,15.77
2019-03-28T15:54:28.431Z,16.31
2019-03-28T15:57:34.716Z,16.19
2019-03-28T16:00:41.718Z,16.11
2019-03-28T16:03:53.171Z,16.12
2019-03-28T16:06:56.437Z,15.84
2019-03-28T16:10:02.936Z,15.76
2019-03-28T16:13:09.418Z,15.34
2019-03-28T16:16:15.707Z,15.15
2019-03-28T16:19:22.067Z,15.42
2019-03-28T16:22:29.392Z,15.49
2019-03-28T16:25:35.742Z,15.42
2019-03-28T16:28:42.100Z,15.56
2019-03-28T16:31:48.373Z,15.43
2019-03-28T16:34:54.698Z,15.15
2019-03-28T16:38:01.041Z,15.21
2019-03-28T16:41:07.324Z,15.29
2019-03-28T16:44:13.694Z,15.34
2019-03-28T16:47:20.019Z,15.22
2019-03-28T16:50:26.435Z,15.18
2019-03-28T16:53:32.890Z,15.01
2019-03-28T16:56:39.167Z,15.20
2019-03-28T16:59:45.642Z,15.26
2019-03-28T17:02:52.016Z,15.24
2019-03-28T17:05:59.126Z,15.26
2019-03-28T17:09:07.593Z,15.29
2019-03-28T17:12:15.615Z,15.18
2019-03-28T17:15:25.670Z,15.13
2019-03-28T17:18:31.405Z,15.11
2019-03-28T17:21:38.188Z,15.10
2019-03-28T17:24:44.624Z,15.23
2019-03-28T17:27:50.887Z,14.88
2019-03-28T17:30:57.481Z,15.01
2019-03-28T17:34:03.755Z,15.09
2019-03-28T17:37:10.117Z,15.09
2019-03-28T17:40:16.393Z,15.16
2019-03-28T17:43:23.842Z,15.20
2019-03-28T17:46:30.337Z,14.76
2019-03-28T17:49:36.620Z,14.82
2019-03-28T17:52:42.948Z,14.78
2019-03-28T17:55:50.319Z,14.80
2019-03-28T17:58:57.539Z,14.87
2019-03-28T18:02:04.499Z,14.99
2019-03-28T18:05:14.099Z,14.55
2019-03-28T18:08:20.078Z,14.66
2019-03-28T18:11:26.490Z,14.88
2019-03-28T18:14:32.837Z,14.84
2019-03-28T18:17:39.226Z,14.89
2019-03-28T18:20:45.564Z,14.87
2019-03-28T18:23:51.895Z,14.70
2019-03-28T18:26:58.180Z,14.61
2019-03-28T18:30:05.522Z,14.68
2019-03-28T18:33:12.474Z,14.64
2019-03-28T18:36:19.155Z,14.70
2019-03-28T18:39:25.507Z,14.77
2019-03-28T18:42:32.977Z,14.71
2019-03-28T18:45:39.274Z,14.66
2019-03-28T18:48:45.573Z,14.54
2019-03-28T18:51:51.875Z,14.51
2019-03-28T18:54:58.406Z,14.37
2019-03-28T18:58:05.606Z,14.19
2019-03-28T19:01:12.264Z,14.34
2019-03-28T19:04:18.688Z,14.27
2019-03-28T19:07:25.020Z,13.66
2019-03-28T19:10:31.322Z,13.55
2019-03-28T19:13:37.686Z,13.47
2019-03-28T19:16:43.998Z,13.10
2019-03-28T19:19:51.455Z,13.27
2019-03-28T19:22:58.560Z,13.27
2019-03-28T19:26:05.330Z,13.13
2019-03-28T19:29:11.611Z,12.95
2019-03-28T19:32:18.037Z,13.06
2019-03-28T19:35:32.977Z,12.85
2019-03-28T19:38:33.211Z,12.75
2019-03-28T19:41:39.548Z,12.51
2019-03-28T19:44:47.409Z,12.35
2019-03-28T19:47:53.783Z,12.07
2019-03-28T19:51:00.134Z,11.85
2019-03-28T19:54:06.488Z,11.89
2019-03-28T19:57:13.926Z,11.38
2019-03-28T20:00:20.203Z,11.58
2019-03-28T20:03:26.646Z,11.53
2019-03-28T20:06:32.987Z,11.43
2019-03-28T20:09:39.310Z,11.13
2019-03-28T20:12:45.622Z,11.38
2019-03-28T20:15:53.223Z,11.14
2019-03-28T20:18:59.742Z,10.11
2019-03-28T20:22:06.001Z,10.08
2019-03-28T20:25:12.534Z,10.23
2019-03-28T20:28:18.827Z,10.05
2019-03-28T20:31:25.422Z,10.19
2019-03-28T20:34:31.790Z,10.08
2019-03-28T20:37:38.155Z,9.96
2019-03-28T20:40:44.492Z,10.40
2019-03-28T20:43:50.849Z,10.27
2019-03-28T20:46:58.775Z,10.74
2019-03-28T20:50:06.151Z,9.65
2019-03-28T20:53:12.740Z,9.38
2019-03-28T20:56:18.986Z,9.39
2019-03-28T20:59:25.519Z,9.15
2019-03-28T21:02:31.890Z,9.60
2019-03-28T21:05:38.384Z,9.68
2019-03-28T21:08:44.761Z,9.46
2019-03-28T21:11:52.017Z,9.36
2019-03-28T21:14:58.514Z,9.40
2019-03-28T21:18:04.869Z,8.98
2019-03-28T21:21:11.154Z,8.88
2019-03-28T21:24:17.449Z,9.29
2019-03-28T21:27:23.813Z,9.57
2019-03-28T21:30:30.092Z,9.55
2019-03-28T21:33:36.530Z,9.31
2019-03-28T21:36:42.819Z,9.29
2019-03-28T21:39:49.133Z,8.85
2019-03-28T21:42:55.381Z,8.85
2019-03-28T21:46:01.749Z,8.67
2019-03-28T21:49:08.867Z,9.01
2019-03-28T21:52:15.416Z,8.97
2019-03-28T21:55:21.775Z,8.73
2019-03-28T21:58:28.122Z,9.08
2019-03-28T22:01:34.418Z,8.87
2019-03-28T22:04:40.793Z,8.91
2019-03-28T22:07:47.079Z,8.87
2019-03-28T22:10:53.374Z,8.86
2019-03-28T22:13:59.731Z,9.17
2019-03-28T22:17:06.062Z,8.99
2019-03-28T22:20:12.944Z,9.08
2019-03-28T22:23:20.948Z,8.77
2019-03-28T22:26:27.475Z,8.33
2019-03-28T22:29:33.755Z,8.61
2019-03-28T22:32:39.997Z,8.38
2019-03-28T22:35:46.369Z,7.78
2019-03-28T22:38:52.787Z,8.12
2019-03-28T22:41:59.167Z,8.14
2019-03-28T22:45:06.345Z,8.35
2019-03-28T22:48:13.130Z,8.35
2019-03-28T22:51:19.659Z,8.51
2019-03-28T22:54:26.024Z,8.45
2019-03-28T22:57:32.424Z,7.37
2019-03-28T23:00:45.795Z,7.89
2019-03-28T23:03:53.748Z,8.39
2019-03-28T23:07:10.391Z,8.19
2019-03-28T23:10:08.667Z,8.17
2019-03-28T23:13:15.097Z,8.45
2019-03-28T23:16:23.095Z,8.36
2019-03-28T23:19:29.510Z,8.46
2019-03-28T23:22:35.786Z,8.46
2019-03-28T23:25:42.170Z,8.27
2019-03-28T23:28:48.633Z,8.36
2019-03-28T23:31:55.030Z,7.90
2019-03-28T23:35:01.311Z,8.06
2019-03-28T23:38:07.795Z,8.03
2019-03-28T23:41:14.055Z,8.43
2019-03-28T23:44:21.433Z,8.42
2019-03-28T23:47:27.705Z,8.23
2019-03-28T23:50:34.048Z,8.03
2019-03-28T23:53:40.378Z,8.00
2019-03-28T23:56:46.679Z,8.36
2019-03-28T23:59:53.078Z,8.10
